<?xml version="1.0" encoding="UTF-8" standalone="no" ?>
<gpx xmlns="http://www.topografix.com/GPX/1/1" xmlns:xsi="http://www.w3.org/2001/XMLSchema-instance" xsi:schemaLocation="http://www.topografix.com/GPX/1/1 http://www.topografix.com/GPX/1/1/gpx.xsd" version="1.1" creator="VisuGPX - https://www.visugpx.com">
  <metadata>
    <name>Rochechouart-Circuit de la météorite</name>
  </metadata>
  <trk>
    <name><![CDATA[9568014-Circuit de la météorite - PDIPR87]]></name>
    <trkseg>
      <trkpt lat="45.82205" lon="0.81967">
        <ele>240</ele>
        <time>2019-03-08T15:03:05Z</time>
      </trkpt>
      <trkpt lat="45.82219" lon="0.81935">
        <ele>239</ele>
        <time>2019-03-08T15:04:05Z</time>
      </trkpt>
      <trkpt lat="45.82352" lon="0.81979">
        <ele>247</ele>
        <time>2019-03-08T15:05:05Z</time>
      </trkpt>
      <trkpt lat="45.82407" lon="0.81728">
        <ele>237</ele>
        <time>2019-03-08T15:06:05Z</time>
      </trkpt>
      <trkpt lat="45.82429" lon="0.81685">
        <ele>236</ele>
        <time>2019-03-08T15:07:05Z</time>
      </trkpt>
      <trkpt lat="45.82454" lon="0.81609">
        <ele>232</ele>
        <time>2019-03-08T15:08:05Z</time>
      </trkpt>
      <trkpt lat="45.82487" lon="0.81573">
        <ele>236</ele>
        <time>2019-03-08T15:09:05Z</time>
      </trkpt>
      <trkpt lat="45.82524" lon="0.81526">
        <ele>237</ele>
        <time>2019-03-08T15:10:05Z</time>
      </trkpt>
      <trkpt lat="45.82569" lon="0.81459">
        <ele>235</ele>
        <time>2019-03-08T15:11:05Z</time>
      </trkpt>
      <trkpt lat="45.82583" lon="0.81451">
        <ele>235</ele>
        <time>2019-03-08T15:12:05Z</time>
      </trkpt>
      <trkpt lat="45.82602" lon="0.81473">
        <ele>236</ele>
        <time>2019-03-08T15:13:05Z</time>
      </trkpt>
      <trkpt lat="45.82631" lon="0.81384">
        <ele>234</ele>
        <time>2019-03-08T15:14:05Z</time>
      </trkpt>
      <trkpt lat="45.82636" lon="0.81375">
        <ele>234</ele>
        <time>2019-03-08T15:15:05Z</time>
      </trkpt>
      <trkpt lat="45.82569" lon="0.81304">
        <ele>228</ele>
        <time>2019-03-08T15:16:05Z</time>
      </trkpt>
      <trkpt lat="45.82581" lon="0.81256">
        <ele>226</ele>
        <time>2019-03-08T15:17:05Z</time>
      </trkpt>
      <trkpt lat="45.82587" lon="0.81211">
        <ele>220</ele>
        <time>2019-03-08T15:18:05Z</time>
      </trkpt>
      <trkpt lat="45.82558" lon="0.81185">
        <ele>213</ele>
        <time>2019-03-08T15:19:05Z</time>
      </trkpt>
      <trkpt lat="45.82523" lon="0.81146">
        <ele>206</ele>
        <time>2019-03-08T15:20:05Z</time>
      </trkpt>
      <trkpt lat="45.82481" lon="0.81086">
        <ele>195</ele>
        <time>2019-03-08T15:21:05Z</time>
      </trkpt>
      <trkpt lat="45.8245" lon="0.81099">
        <ele>193</ele>
        <time>2019-03-08T15:22:05Z</time>
      </trkpt>
      <trkpt lat="45.82421" lon="0.81194">
        <ele>192</ele>
        <time>2019-03-08T15:23:05Z</time>
      </trkpt>
      <trkpt lat="45.82414" lon="0.81342">
        <ele>195</ele>
        <time>2019-03-08T15:24:05Z</time>
      </trkpt>
      <trkpt lat="45.82353" lon="0.81311">
        <ele>192</ele>
        <time>2019-03-08T15:25:05Z</time>
      </trkpt>
      <trkpt lat="45.82324" lon="0.81292">
        <ele>192</ele>
        <time>2019-03-08T15:26:05Z</time>
      </trkpt>
      <trkpt lat="45.82301" lon="0.81236">
        <ele>193</ele>
        <time>2019-03-08T15:27:05Z</time>
      </trkpt>
      <trkpt lat="45.82295" lon="0.81216">
        <ele>194</ele>
        <time>2019-03-08T15:28:05Z</time>
      </trkpt>
      <trkpt lat="45.82306" lon="0.81156">
        <ele>193</ele>
        <time>2019-03-08T15:29:05Z</time>
      </trkpt>
      <trkpt lat="45.82345" lon="0.81046">
        <ele>193</ele>
        <time>2019-03-08T15:30:05Z</time>
      </trkpt>
      <trkpt lat="45.82358" lon="0.81005">
        <ele>194</ele>
        <time>2019-03-08T15:31:05Z</time>
      </trkpt>
      <trkpt lat="45.82363" lon="0.80812">
        <ele>206</ele>
        <time>2019-03-08T15:32:05Z</time>
      </trkpt>
      <trkpt lat="45.82255" lon="0.80391">
        <ele>233</ele>
        <time>2019-03-08T15:33:05Z</time>
      </trkpt>
      <trkpt lat="45.82223" lon="0.80151">
        <ele>247</ele>
        <time>2019-03-08T15:34:05Z</time>
      </trkpt>
      <trkpt lat="45.82223" lon="0.80112">
        <ele>248</ele>
        <time>2019-03-08T15:35:05Z</time>
      </trkpt>
      <trkpt lat="45.82193" lon="0.79987">
        <ele>250</ele>
        <time>2019-03-08T15:36:05Z</time>
      </trkpt>
      <trkpt lat="45.82171" lon="0.79855">
        <ele>246</ele>
        <time>2019-03-08T15:37:05Z</time>
      </trkpt>
      <trkpt lat="45.8216" lon="0.79626">
        <ele>237</ele>
        <time>2019-03-08T15:38:05Z</time>
      </trkpt>
      <trkpt lat="45.82155" lon="0.79558">
        <ele>234</ele>
        <time>2019-03-08T15:39:05Z</time>
      </trkpt>
      <trkpt lat="45.82154" lon="0.79513">
        <ele>233</ele>
        <time>2019-03-08T15:40:05Z</time>
      </trkpt>
      <trkpt lat="45.8216" lon="0.79475">
        <ele>232</ele>
        <time>2019-03-08T15:41:05Z</time>
      </trkpt>
      <trkpt lat="45.82148" lon="0.79406">
        <ele>233</ele>
        <time>2019-03-08T15:42:05Z</time>
      </trkpt>
      <trkpt lat="45.82109" lon="0.79247">
        <ele>235</ele>
        <time>2019-03-08T15:43:05Z</time>
      </trkpt>
      <trkpt lat="45.82041" lon="0.7922">
        <ele>240</ele>
        <time>2019-03-08T15:44:05Z</time>
      </trkpt>
      <trkpt lat="45.82" lon="0.79226">
        <ele>242</ele>
        <time>2019-03-08T15:45:05Z</time>
      </trkpt>
      <trkpt lat="45.81954" lon="0.79204">
        <ele>248</ele>
        <time>2019-03-08T15:46:05Z</time>
      </trkpt>
      <trkpt lat="45.81934" lon="0.79244">
        <ele>250</ele>
        <time>2019-03-08T15:47:05Z</time>
      </trkpt>
      <trkpt lat="45.81885" lon="0.79245">
        <ele>254</ele>
        <time>2019-03-08T15:48:05Z</time>
      </trkpt>
      <trkpt lat="45.81878" lon="0.79206">
        <ele>254</ele>
        <time>2019-03-08T15:49:05Z</time>
      </trkpt>
      <trkpt lat="45.8187" lon="0.79182">
        <ele>254</ele>
        <time>2019-03-08T15:50:05Z</time>
      </trkpt>
      <trkpt lat="45.81838" lon="0.79075">
        <ele>255</ele>
        <time>2019-03-08T15:51:05Z</time>
      </trkpt>
      <trkpt lat="45.81793" lon="0.79054">
        <ele>254</ele>
        <time>2019-03-08T15:52:05Z</time>
      </trkpt>
      <trkpt lat="45.81738" lon="0.79028">
        <ele>254</ele>
        <time>2019-03-08T15:53:05Z</time>
      </trkpt>
      <trkpt lat="45.81694" lon="0.78998">
        <ele>253</ele>
        <time>2019-03-08T15:54:05Z</time>
      </trkpt>
      <trkpt lat="45.81613" lon="0.78912">
        <ele>246</ele>
        <time>2019-03-08T15:55:05Z</time>
      </trkpt>
      <trkpt lat="45.81596" lon="0.78908">
        <ele>245</ele>
        <time>2019-03-08T15:56:05Z</time>
      </trkpt>
      <trkpt lat="45.81583" lon="0.78914">
        <ele>244</ele>
        <time>2019-03-08T15:57:05Z</time>
      </trkpt>
      <trkpt lat="45.81573" lon="0.78936">
        <ele>244</ele>
        <time>2019-03-08T15:58:05Z</time>
      </trkpt>
      <trkpt lat="45.81561" lon="0.78959">
        <ele>245</ele>
        <time>2019-03-08T15:59:05Z</time>
      </trkpt>
      <trkpt lat="45.81549" lon="0.78966">
        <ele>244</ele>
        <time>2019-03-08T16:00:05Z</time>
      </trkpt>
      <trkpt lat="45.81537" lon="0.7897">
        <ele>244</ele>
        <time>2019-03-08T16:01:05Z</time>
      </trkpt>
      <trkpt lat="45.81522" lon="0.7896">
        <ele>243</ele>
        <time>2019-03-08T16:02:05Z</time>
      </trkpt>
      <trkpt lat="45.81513" lon="0.78943">
        <ele>242</ele>
        <time>2019-03-08T16:03:05Z</time>
      </trkpt>
      <trkpt lat="45.81478" lon="0.78896">
        <ele>238</ele>
        <time>2019-03-08T16:04:05Z</time>
      </trkpt>
      <trkpt lat="45.81438" lon="0.78864">
        <ele>234</ele>
        <time>2019-03-08T16:05:05Z</time>
      </trkpt>
      <trkpt lat="45.81403" lon="0.78835">
        <ele>231</ele>
        <time>2019-03-08T16:06:05Z</time>
      </trkpt>
      <trkpt lat="45.8139" lon="0.78839">
        <ele>230</ele>
        <time>2019-03-08T16:07:05Z</time>
      </trkpt>
      <trkpt lat="45.81366" lon="0.7887">
        <ele>231</ele>
        <time>2019-03-08T16:08:05Z</time>
      </trkpt>
      <trkpt lat="45.81352" lon="0.78883">
        <ele>231</ele>
        <time>2019-03-08T16:09:05Z</time>
      </trkpt>
      <trkpt lat="45.81335" lon="0.78885">
        <ele>231</ele>
        <time>2019-03-08T16:10:05Z</time>
      </trkpt>
      <trkpt lat="45.81321" lon="0.78876">
        <ele>230</ele>
        <time>2019-03-08T16:11:05Z</time>
      </trkpt>
      <trkpt lat="45.81247" lon="0.78804">
        <ele>224</ele>
        <time>2019-03-08T16:12:05Z</time>
      </trkpt>
      <trkpt lat="45.8124" lon="0.78788">
        <ele>224</ele>
        <time>2019-03-08T16:13:05Z</time>
      </trkpt>
      <trkpt lat="45.81237" lon="0.78762">
        <ele>224</ele>
        <time>2019-03-08T16:14:05Z</time>
      </trkpt>
      <trkpt lat="45.81237" lon="0.78728">
        <ele>223</ele>
        <time>2019-03-08T16:15:05Z</time>
      </trkpt>
      <trkpt lat="45.81231" lon="0.78701">
        <ele>224</ele>
        <time>2019-03-08T16:16:05Z</time>
      </trkpt>
      <trkpt lat="45.81222" lon="0.78685">
        <ele>224</ele>
        <time>2019-03-08T16:17:05Z</time>
      </trkpt>
      <trkpt lat="45.8121" lon="0.78669">
        <ele>226</ele>
        <time>2019-03-08T16:18:05Z</time>
      </trkpt>
      <trkpt lat="45.81175" lon="0.78646">
        <ele>231</ele>
        <time>2019-03-08T16:19:05Z</time>
      </trkpt>
      <trkpt lat="45.81093" lon="0.78628">
        <ele>239</ele>
        <time>2019-03-08T16:20:05Z</time>
      </trkpt>
      <trkpt lat="45.81083" lon="0.78642">
        <ele>240</ele>
        <time>2019-03-08T16:21:05Z</time>
      </trkpt>
      <trkpt lat="45.8102" lon="0.7872">
        <ele>243</ele>
        <time>2019-03-08T16:22:05Z</time>
      </trkpt>
      <trkpt lat="45.80975" lon="0.78789">
        <ele>244</ele>
        <time>2019-03-08T16:23:05Z</time>
      </trkpt>
      <trkpt lat="45.80915" lon="0.78897">
        <ele>245</ele>
        <time>2019-03-08T16:24:05Z</time>
      </trkpt>
      <trkpt lat="45.80901" lon="0.78924">
        <ele>246</ele>
        <time>2019-03-08T16:25:05Z</time>
      </trkpt>
      <trkpt lat="45.8087" lon="0.78953">
        <ele>247</ele>
        <time>2019-03-08T16:26:05Z</time>
      </trkpt>
      <trkpt lat="45.80856" lon="0.79008">
        <ele>249</ele>
        <time>2019-03-08T16:27:05Z</time>
      </trkpt>
      <trkpt lat="45.80854" lon="0.7907">
        <ele>250</ele>
        <time>2019-03-08T16:28:05Z</time>
      </trkpt>
      <trkpt lat="45.80856" lon="0.79158">
        <ele>250</ele>
        <time>2019-03-08T16:29:05Z</time>
      </trkpt>
      <trkpt lat="45.8085" lon="0.79255">
        <ele>251</ele>
        <time>2019-03-08T16:30:05Z</time>
      </trkpt>
      <trkpt lat="45.80854" lon="0.79408">
        <ele>252</ele>
        <time>2019-03-08T16:31:05Z</time>
      </trkpt>
      <trkpt lat="45.80854" lon="0.79507">
        <ele>254</ele>
        <time>2019-03-08T16:32:05Z</time>
      </trkpt>
      <trkpt lat="45.8085" lon="0.79556">
        <ele>257</ele>
        <time>2019-03-08T16:33:05Z</time>
      </trkpt>
      <trkpt lat="45.80846" lon="0.79607">
        <ele>258</ele>
        <time>2019-03-08T16:34:05Z</time>
      </trkpt>
      <trkpt lat="45.80813" lon="0.79651">
        <ele>260</ele>
        <time>2019-03-08T16:35:05Z</time>
      </trkpt>
      <trkpt lat="45.80739" lon="0.79678">
        <ele>266</ele>
        <time>2019-03-08T16:36:05Z</time>
      </trkpt>
      <trkpt lat="45.80726" lon="0.79685">
        <ele>266</ele>
        <time>2019-03-08T16:37:05Z</time>
      </trkpt>
      <trkpt lat="45.80706" lon="0.79669">
        <ele>266</ele>
        <time>2019-03-08T16:38:05Z</time>
      </trkpt>
      <trkpt lat="45.80677" lon="0.79675">
        <ele>265</ele>
        <time>2019-03-08T16:39:05Z</time>
      </trkpt>
      <trkpt lat="45.80616" lon="0.79736">
        <ele>269</ele>
        <time>2019-03-08T16:40:05Z</time>
      </trkpt>
      <trkpt lat="45.80552" lon="0.79826">
        <ele>274</ele>
        <time>2019-03-08T16:41:05Z</time>
      </trkpt>
      <trkpt lat="45.80526" lon="0.79861">
        <ele>275</ele>
        <time>2019-03-08T16:42:05Z</time>
      </trkpt>
      <trkpt lat="45.80581" lon="0.799">
        <ele>272</ele>
        <time>2019-03-08T16:43:05Z</time>
      </trkpt>
      <trkpt lat="45.8066" lon="0.79967">
        <ele>268</ele>
        <time>2019-03-08T16:44:05Z</time>
      </trkpt>
      <trkpt lat="45.80729" lon="0.80046">
        <ele>267</ele>
        <time>2019-03-08T16:45:05Z</time>
      </trkpt>
      <trkpt lat="45.80824" lon="0.80096">
        <ele>267</ele>
        <time>2019-03-08T16:46:05Z</time>
      </trkpt>
      <trkpt lat="45.80959" lon="0.80175">
        <ele>271</ele>
        <time>2019-03-08T16:47:05Z</time>
      </trkpt>
      <trkpt lat="45.81029" lon="0.80226">
        <ele>274</ele>
        <time>2019-03-08T16:48:05Z</time>
      </trkpt>
      <trkpt lat="45.80884" lon="0.80401">
        <ele>273</ele>
        <time>2019-03-08T16:49:05Z</time>
      </trkpt>
      <trkpt lat="45.80812" lon="0.80436">
        <ele>273</ele>
        <time>2019-03-08T16:50:05Z</time>
      </trkpt>
      <trkpt lat="45.80701" lon="0.80478">
        <ele>276</ele>
        <time>2019-03-08T16:51:05Z</time>
      </trkpt>
      <trkpt lat="45.80613" lon="0.80505">
        <ele>278</ele>
        <time>2019-03-08T16:52:05Z</time>
      </trkpt>
      <trkpt lat="45.80554" lon="0.80504">
        <ele>277</ele>
        <time>2019-03-08T16:53:05Z</time>
      </trkpt>
      <trkpt lat="45.80483" lon="0.80496">
        <ele>274</ele>
        <time>2019-03-08T16:54:05Z</time>
      </trkpt>
      <trkpt lat="45.80593" lon="0.80791">
        <ele>270</ele>
        <time>2019-03-08T16:55:05Z</time>
      </trkpt>
      <trkpt lat="45.80729" lon="0.81137">
        <ele>263</ele>
        <time>2019-03-08T16:56:05Z</time>
      </trkpt>
      <trkpt lat="45.80848" lon="0.81269">
        <ele>257</ele>
        <time>2019-03-08T16:57:05Z</time>
      </trkpt>
      <trkpt lat="45.80773" lon="0.81258">
        <ele>258</ele>
        <time>2019-03-08T16:58:05Z</time>
      </trkpt>
      <trkpt lat="45.80656" lon="0.813">
        <ele>255</ele>
        <time>2019-03-08T16:59:05Z</time>
      </trkpt>
      <trkpt lat="45.80505" lon="0.81316">
        <ele>249</ele>
        <time>2019-03-08T17:00:05Z</time>
      </trkpt>
      <trkpt lat="45.80372" lon="0.81334">
        <ele>248</ele>
        <time>2019-03-08T17:01:05Z</time>
      </trkpt>
      <trkpt lat="45.80371" lon="0.81457">
        <ele>243</ele>
        <time>2019-03-08T17:02:05Z</time>
      </trkpt>
      <trkpt lat="45.80357" lon="0.81543">
        <ele>242</ele>
        <time>2019-03-08T17:03:05Z</time>
      </trkpt>
      <trkpt lat="45.80367" lon="0.8164">
        <ele>241</ele>
        <time>2019-03-08T17:04:05Z</time>
      </trkpt>
      <trkpt lat="45.8039" lon="0.81736">
        <ele>240</ele>
        <time>2019-03-08T17:05:05Z</time>
      </trkpt>
      <trkpt lat="45.80471" lon="0.81703">
        <ele>238</ele>
        <time>2019-03-08T17:06:05Z</time>
      </trkpt>
      <trkpt lat="45.80531" lon="0.81648">
        <ele>235</ele>
        <time>2019-03-08T17:07:05Z</time>
      </trkpt>
      <trkpt lat="45.80594" lon="0.81649">
        <ele>232</ele>
        <time>2019-03-08T17:08:05Z</time>
      </trkpt>
      <trkpt lat="45.80642" lon="0.81693">
        <ele>232</ele>
        <time>2019-03-08T17:09:05Z</time>
      </trkpt>
      <trkpt lat="45.80759" lon="0.81775">
        <ele>239</ele>
        <time>2019-03-08T17:10:05Z</time>
      </trkpt>
      <trkpt lat="45.80843" lon="0.81847">
        <ele>241</ele>
        <time>2019-03-08T17:11:05Z</time>
      </trkpt>
      <trkpt lat="45.80909" lon="0.81883">
        <ele>239</ele>
        <time>2019-03-08T17:12:05Z</time>
      </trkpt>
      <trkpt lat="45.80981" lon="0.81947">
        <ele>236</ele>
        <time>2019-03-08T17:13:05Z</time>
      </trkpt>
      <trkpt lat="45.81054" lon="0.81991">
        <ele>231</ele>
        <time>2019-03-08T17:14:05Z</time>
      </trkpt>
      <trkpt lat="45.81112" lon="0.81985">
        <ele>223</ele>
        <time>2019-03-08T17:15:05Z</time>
      </trkpt>
      <trkpt lat="45.81157" lon="0.81965">
        <ele>216</ele>
        <time>2019-03-08T17:16:05Z</time>
      </trkpt>
      <trkpt lat="45.81161" lon="0.82023">
        <ele>210</ele>
        <time>2019-03-08T17:17:05Z</time>
      </trkpt>
      <trkpt lat="45.81162" lon="0.82035">
        <ele>209</ele>
        <time>2019-03-08T17:18:05Z</time>
      </trkpt>
      <trkpt lat="45.81178" lon="0.82027">
        <ele>207</ele>
        <time>2019-03-08T17:19:05Z</time>
      </trkpt>
      <trkpt lat="45.81199" lon="0.81998">
        <ele>206</ele>
        <time>2019-03-08T17:20:05Z</time>
      </trkpt>
      <trkpt lat="45.81221" lon="0.81953">
        <ele>207</ele>
        <time>2019-03-08T17:21:05Z</time>
      </trkpt>
      <trkpt lat="45.8126" lon="0.81911">
        <ele>206</ele>
        <time>2019-03-08T17:22:05Z</time>
      </trkpt>
      <trkpt lat="45.81292" lon="0.81836">
        <ele>207</ele>
        <time>2019-03-08T17:23:05Z</time>
      </trkpt>
      <trkpt lat="45.81315" lon="0.81801">
        <ele>207</ele>
        <time>2019-03-08T17:24:05Z</time>
      </trkpt>
      <trkpt lat="45.81326" lon="0.81781">
        <ele>208</ele>
        <time>2019-03-08T17:25:05Z</time>
      </trkpt>
      <trkpt lat="45.81342" lon="0.81781">
        <ele>208</ele>
        <time>2019-03-08T17:26:05Z</time>
      </trkpt>
      <trkpt lat="45.81388" lon="0.81785">
        <ele>208</ele>
        <time>2019-03-08T17:27:05Z</time>
      </trkpt>
      <trkpt lat="45.81432" lon="0.81808">
        <ele>205</ele>
        <time>2019-03-08T17:28:05Z</time>
      </trkpt>
      <trkpt lat="45.81478" lon="0.81819">
        <ele>205</ele>
        <time>2019-03-08T17:29:05Z</time>
      </trkpt>
      <trkpt lat="45.81533" lon="0.81834">
        <ele>205</ele>
        <time>2019-03-08T17:30:05Z</time>
      </trkpt>
      <trkpt lat="45.81551" lon="0.81788">
        <ele>209</ele>
        <time>2019-03-08T17:31:05Z</time>
      </trkpt>
      <trkpt lat="45.81582" lon="0.81743">
        <ele>211</ele>
        <time>2019-03-08T17:32:05Z</time>
      </trkpt>
      <trkpt lat="45.81612" lon="0.81734">
        <ele>213</ele>
        <time>2019-03-08T17:33:05Z</time>
      </trkpt>
      <trkpt lat="45.81603" lon="0.81631">
        <ele>220</ele>
        <time>2019-03-08T17:34:05Z</time>
      </trkpt>
      <trkpt lat="45.81547" lon="0.81528">
        <ele>237</ele>
        <time>2019-03-08T17:35:05Z</time>
      </trkpt>
      <trkpt lat="45.81531" lon="0.81448">
        <ele>245</ele>
        <time>2019-03-08T17:36:05Z</time>
      </trkpt>
      <trkpt lat="45.81529" lon="0.81387">
        <ele>251</ele>
        <time>2019-03-08T17:37:05Z</time>
      </trkpt>
      <trkpt lat="45.81448" lon="0.81095">
        <ele>264</ele>
        <time>2019-03-08T17:38:05Z</time>
      </trkpt>
      <trkpt lat="45.81494" lon="0.81052">
        <ele>263</ele>
        <time>2019-03-08T17:39:05Z</time>
      </trkpt>
      <trkpt lat="45.81531" lon="0.81065">
        <ele>263</ele>
        <time>2019-03-08T17:40:05Z</time>
      </trkpt>
      <trkpt lat="45.81641" lon="0.81118">
        <ele>258</ele>
        <time>2019-03-08T17:41:05Z</time>
      </trkpt>
      <trkpt lat="45.81716" lon="0.81031">
        <ele>257</ele>
        <time>2019-03-08T17:42:05Z</time>
      </trkpt>
      <trkpt lat="45.81711" lon="0.80958">
        <ele>258</ele>
        <time>2019-03-08T17:43:05Z</time>
      </trkpt>
      <trkpt lat="45.81714" lon="0.80909">
        <ele>257</ele>
        <time>2019-03-08T17:44:05Z</time>
      </trkpt>
      <trkpt lat="45.81696" lon="0.80844">
        <ele>255</ele>
        <time>2019-03-08T17:45:05Z</time>
      </trkpt>
      <trkpt lat="45.81726" lon="0.80811">
        <ele>251</ele>
        <time>2019-03-08T17:46:05Z</time>
      </trkpt>
      <trkpt lat="45.8185" lon="0.80915">
        <ele>248</ele>
        <time>2019-03-08T17:47:05Z</time>
      </trkpt>
      <trkpt lat="45.81905" lon="0.80971">
        <ele>241</ele>
        <time>2019-03-08T17:48:05Z</time>
      </trkpt>
      <trkpt lat="45.81969" lon="0.81008">
        <ele>236</ele>
        <time>2019-03-08T17:49:05Z</time>
      </trkpt>
      <trkpt lat="45.82047" lon="0.81078">
        <ele>229</ele>
        <time>2019-03-08T17:50:05Z</time>
      </trkpt>
      <trkpt lat="45.8209" lon="0.81142">
        <ele>222</ele>
        <time>2019-03-08T17:51:05Z</time>
      </trkpt>
      <trkpt lat="45.82072" lon="0.81195">
        <ele>225</ele>
        <time>2019-03-08T17:52:05Z</time>
      </trkpt>
      <trkpt lat="45.82116" lon="0.81229">
        <ele>219</ele>
        <time>2019-03-08T17:53:05Z</time>
      </trkpt>
      <trkpt lat="45.82203" lon="0.8127">
        <ele>208</ele>
        <time>2019-03-08T17:54:05Z</time>
      </trkpt>
      <trkpt lat="45.82235" lon="0.81354">
        <ele>206</ele>
        <time>2019-03-08T17:55:05Z</time>
      </trkpt>
      <trkpt lat="45.8225" lon="0.81396">
        <ele>206</ele>
        <time>2019-03-08T17:56:05Z</time>
      </trkpt>
      <trkpt lat="45.82262" lon="0.8149">
        <ele>202</ele>
        <time>2019-03-08T17:57:05Z</time>
      </trkpt>
      <trkpt lat="45.82264" lon="0.81502">
        <ele>201</ele>
        <time>2019-03-08T17:58:05Z</time>
      </trkpt>
      <trkpt lat="45.8228" lon="0.81466">
        <ele>200</ele>
        <time>2019-03-08T17:59:05Z</time>
      </trkpt>
      <trkpt lat="45.82288" lon="0.81414">
        <ele>200</ele>
        <time>2019-03-08T18:00:05Z</time>
      </trkpt>
      <trkpt lat="45.82289" lon="0.81316">
        <ele>196</ele>
        <time>2019-03-08T18:01:05Z</time>
      </trkpt>
      <trkpt lat="45.82293" lon="0.81242">
        <ele>194</ele>
        <time>2019-03-08T18:02:05Z</time>
      </trkpt>
      <trkpt lat="45.82306" lon="0.81264">
        <ele>193</ele>
        <time>2019-03-08T18:03:05Z</time>
      </trkpt>
      <trkpt lat="45.82313" lon="0.81292">
        <ele>193</ele>
        <time>2019-03-08T18:04:05Z</time>
      </trkpt>
      <trkpt lat="45.82336" lon="0.81308">
        <ele>191</ele>
        <time>2019-03-08T18:05:05Z</time>
      </trkpt>
      <trkpt lat="45.82375" lon="0.81329">
        <ele>193</ele>
        <time>2019-03-08T18:06:05Z</time>
      </trkpt>
      <trkpt lat="45.82401" lon="0.81342">
        <ele>195</ele>
        <time>2019-03-08T18:07:05Z</time>
      </trkpt>
      <trkpt lat="45.82417" lon="0.81358">
        <ele>196</ele>
        <time>2019-03-08T18:08:05Z</time>
      </trkpt>
      <trkpt lat="45.82423" lon="0.81311">
        <ele>196</ele>
        <time>2019-03-08T18:09:05Z</time>
      </trkpt>
      <trkpt lat="45.82426" lon="0.81233">
        <ele>194</ele>
        <time>2019-03-08T18:10:05Z</time>
      </trkpt>
      <trkpt lat="45.82431" lon="0.8119">
        <ele>194</ele>
        <time>2019-03-08T18:11:05Z</time>
      </trkpt>
      <trkpt lat="45.82452" lon="0.81113">
        <ele>194</ele>
        <time>2019-03-08T18:12:05Z</time>
      </trkpt>
      <trkpt lat="45.82482" lon="0.81101">
        <ele>197</ele>
        <time>2019-03-08T18:13:05Z</time>
      </trkpt>
      <trkpt lat="45.82517" lon="0.81158">
        <ele>207</ele>
        <time>2019-03-08T18:14:05Z</time>
      </trkpt>
      <trkpt lat="45.82573" lon="0.81193">
        <ele>216</ele>
        <time>2019-03-08T18:15:05Z</time>
      </trkpt>
      <trkpt lat="45.82584" lon="0.81208">
        <ele>219</ele>
        <time>2019-03-08T18:16:05Z</time>
      </trkpt>
      <trkpt lat="45.82582" lon="0.81238">
        <ele>224</ele>
        <time>2019-03-08T18:17:05Z</time>
      </trkpt>
      <trkpt lat="45.82579" lon="0.81275">
        <ele>227</ele>
        <time>2019-03-08T18:18:05Z</time>
      </trkpt>
      <trkpt lat="45.82565" lon="0.81302">
        <ele>227</ele>
        <time>2019-03-08T18:19:05Z</time>
      </trkpt>
      <trkpt lat="45.82597" lon="0.81341">
        <ele>233</ele>
        <time>2019-03-08T18:20:05Z</time>
      </trkpt>
      <trkpt lat="45.82626" lon="0.81373">
        <ele>234</ele>
        <time>2019-03-08T18:21:05Z</time>
      </trkpt>
      <trkpt lat="45.82602" lon="0.81458">
        <ele>235</ele>
        <time>2019-03-08T18:22:05Z</time>
      </trkpt>
      <trkpt lat="45.82593" lon="0.81447">
        <ele>235</ele>
        <time>2019-03-08T18:23:05Z</time>
      </trkpt>
      <trkpt lat="45.82576" lon="0.8144">
        <ele>234</ele>
        <time>2019-03-08T18:24:05Z</time>
      </trkpt>
      <trkpt lat="45.82562" lon="0.81449">
        <ele>234</ele>
        <time>2019-03-08T18:25:05Z</time>
      </trkpt>
      <trkpt lat="45.82535" lon="0.81494">
        <ele>235</ele>
        <time>2019-03-08T18:26:05Z</time>
      </trkpt>
      <trkpt lat="45.82502" lon="0.81545">
        <ele>237</ele>
        <time>2019-03-08T18:27:05Z</time>
      </trkpt>
      <trkpt lat="45.82468" lon="0.81581">
        <ele>232</ele>
        <time>2019-03-08T18:28:05Z</time>
      </trkpt>
      <trkpt lat="45.8245" lon="0.81598">
        <ele>230</ele>
        <time>2019-03-08T18:29:05Z</time>
      </trkpt>
      <trkpt lat="45.82437" lon="0.81638">
        <ele>231</ele>
        <time>2019-03-08T18:30:05Z</time>
      </trkpt>
      <trkpt lat="45.82421" lon="0.81679">
        <ele>234</ele>
        <time>2019-03-08T18:31:05Z</time>
      </trkpt>
      <trkpt lat="45.82402" lon="0.81713">
        <ele>234</ele>
        <time>2019-03-08T18:32:05Z</time>
      </trkpt>
      <trkpt lat="45.82392" lon="0.81754">
        <ele>237</ele>
        <time>2019-03-08T18:33:05Z</time>
      </trkpt>
      <trkpt lat="45.82375" lon="0.81838">
        <ele>239</ele>
        <time>2019-03-08T18:34:05Z</time>
      </trkpt>
      <trkpt lat="45.82352" lon="0.81957">
        <ele>245</ele>
        <time>2019-03-08T18:35:05Z</time>
      </trkpt>
      <trkpt lat="45.82342" lon="0.81963">
        <ele>245</ele>
        <time>2019-03-08T18:36:05Z</time>
      </trkpt>
      <trkpt lat="45.82327" lon="0.81962">
        <ele>244</ele>
        <time>2019-03-08T18:37:05Z</time>
      </trkpt>
      <trkpt lat="45.82286" lon="0.81946">
        <ele>241</ele>
        <time>2019-03-08T18:38:05Z</time>
      </trkpt>
      <trkpt lat="45.82223" lon="0.81924">
        <ele>238</ele>
        <time>2019-03-08T18:39:05Z</time>
      </trkpt>
      <trkpt lat="45.82212" lon="0.81935">
        <ele>239</ele>
        <time>2019-03-08T18:40:05Z</time>
      </trkpt>
      <trkpt lat="45.82203" lon="0.8196">
        <ele>240</ele>
        <time>2019-03-08T18:41:05Z</time>
      </trkpt>
    </trkseg>
  </trk>
</gpx>